Amherst, Colorado
Current Conditions -  °F | °C
As of 10:35 PM on Tuesday 21 Oct 2014 (Local Time) from KHEQ Reporting Station
Clear Clear  
Wind Chill: 61°   Ceiling: Unl
Heat Index: 61°   Visibility: 10mi
Dew Point: 45°   Wind: 8mph
Humidity: 55%   Direction: 170°S
Pressure: 29.9"   Gusts: NA
Location:  40.68°N, 102.17°W
Report Text: KHEQ 220435Z AUTO 17007KT 10SM CLR 16/07 A2990 RMK AO2
Loading
Personal Weather Stations






























Interactive Weather Map
Tropical Storm Tracking
New forecast layout! Learn more

10-Day Weather Forecast

Advertisements
Track Severe Weather on mobile